sensor_id;sensor_type;location;lat;lon;timestamp;P1;durP1;ratioP1;P2;durP2;ratioP2
48945;SDS011;34999;50.940;3.998;2023-02-28T00:01:31;11.17;;;7.53;;
48945;SDS011;34999;50.940;3.998;2023-02-28T00:04:01;11.87;;;7.27;;
48945;SDS011;34999;50.940;3.998;2023-02-28T00:06:29;18.43;;;7.93;;
48945;SDS011;34999;50.940;3.998;2023-02-28T00:08:58;11.47;;;8.40;;
48945;SDS011;34999;50.940;3.998;2023-02-28T00:11:27;13.07;;;8.63;;
48945;SDS011;34999;50.940;3.998;2023-02-28T00:13:55;8.80;;;7.73;;
48945;SDS011;34999;50.940;3.998;2023-02-28T00:16:24;10.77;;;8.50;;
48945;SDS011;34999;50.940;3.998;2023-02-28T00:18:54;11.07;;;7.90;;
48945;SDS011;34999;50.940;3.998;2023-02-28T00:21:24;11.30;;;8.10;;
48945;SDS011;34999;50.940;3.998;2023-02-28T00:23:53;10.83;;;7.90;;
48945;SDS011;34999;50.940;3.998;2023-02-28T00:26:21;14.10;;;8.47;;
48945;SDS011;34999;50.940;3.998;2023-02-28T00:28:51;12.53;;;7.97;;
48945;SDS011;34999;50.940;3.998;2023-02-28T00:31:20;10.97;;;8.10;;
48945;SDS011;34999;50.940;3.998;2023-02-28T00:33:48;12.33;;;7.90;;
48945;SDS011;34999;50.940;3.998;2023-02-28T00:36:20;13.40;;;8.17;;
48945;SDS011;34999;50.940;3.998;2023-02-28T00:38:48;17.30;;;8.57;;
48945;SDS011;34999;50.940;3.998;2023-02-28T00:41:17;14.07;;;8.20;;
48945;SDS011;34999;50.940;3.998;2023-02-28T00:43:45;10.60;;;8.23;;
48945;SDS011;34999;50.940;3.998;2023-02-28T00:46:14;12.80;;;8.17;;
48945;SDS011;34999;50.940;3.998;2023-02-28T00:48:42;15.20;;;7.97;;
48945;SDS011;34999;50.940;3.998;2023-02-28T00:51:10;10.57;;;8.17;;
48945;SDS011;34999;50.940;3.998;2023-02-28T00:53:40;11.70;;;7.97;;
48945;SDS011;34999;50.940;3.998;2023-02-28T00:56:08;11.53;;;8.13;;
48945;SDS011;34999;50.940;3.998;2023-02-28T00:58:36;15.33;;;8.13;;
48945;SDS011;34999;50.940;3.998;2023-02-28T01:01:04;13.07;;;8.23;;
48945;SDS011;34999;50.940;3.998;2023-02-28T01:03:33;13.07;;;8.17;;
48945;SDS011;34999;50.940;3.998;2023-02-28T01:06:01;14.47;;;8.47;;
48945;SDS011;34999;50.940;3.998;2023-02-28T01:08:29;11.97;;;8.37;;
48945;SDS011;34999;50.940;3.998;2023-02-28T01:11:06;13.97;;;8.73;;
48945;SDS011;34999;50.940;3.998;2023-02-28T01:13:36;12.70;;;8.20;;
48945;SDS011;34999;50.940;3.998;2023-02-28T01:16:04;12.07;;;8.07;;
48945;SDS011;34999;50.940;3.998;2023-02-28T01:18:33;13.27;;;7.93;;
48945;SDS011;34999;50.940;3.998;2023-02-28T01:21:03;14.43;;;8.77;;
48945;SDS011;34999;50.940;3.998;2023-02-28T01:23:31;11.87;;;7.20;;
48945;SDS011;34999;50.940;3.998;2023-02-28T01:26:04;11.97;;;8.50;;
48945;SDS011;34999;50.940;3.998;2023-02-28T01:28:33;11.50;;;8.20;;
48945;SDS011;34999;50.940;3.998;2023-02-28T01:31:02;11.40;;;7.97;;
48945;SDS011;34999;50.940;3.998;2023-02-28T01:33:30;15.97;;;8.50;;
48945;SDS011;34999;50.940;3.998;2023-02-28T01:35:59;13.13;;;8.70;;
48945;SDS011;34999;50.940;3.998;2023-02-28T01:38:28;15.97;;;8.57;;
48945;SDS011;34999;50.940;3.998;2023-02-28T01:40:57;13.37;;;8.53;;
48945;SDS011;34999;50.940;3.998;2023-02-28T01:43:27;13.10;;;8.30;;
48945;SDS011;34999;50.940;3.998;2023-02-28T01:45:56;14.93;;;8.20;;
48945;SDS011;34999;50.940;3.998;2023-02-28T01:48:26;13.17;;;8.03;;
48945;SDS011;34999;50.940;3.998;2023-02-28T01:50:59;14.80;;;8.47;;
48945;SDS011;34999;50.940;3.998;2023-02-28T01:53:32;15.07;;;8.07;;
48945;SDS011;34999;50.940;3.998;2023-02-28T01:56:05;13.17;;;8.37;;
48945;SDS011;34999;50.940;3.998;2023-02-28T01:58:36;14.07;;;8.57;;
48945;SDS011;34999;50.940;3.998;2023-02-28T02:01:05;10.83;;;7.90;;
48945;SDS011;34999;50.940;3.998;2023-02-28T02:03:33;11.33;;;7.93;;
48945;SDS011;34999;50.940;3.998;2023-02-28T02:06:03;15.57;;;8.33;;
48945;SDS011;34999;50.940;3.998;2023-02-28T02:08:32;11.57;;;8.80;;
48945;SDS011;34999;50.940;3.998;2023-02-28T02:11:02;14.67;;;8.80;;
48945;SDS011;34999;50.940;3.998;2023-02-28T02:13:40;14.13;;;8.43;;
48945;SDS011;34999;50.940;3.998;2023-02-28T02:16:28;13.90;;;9.47;;
48945;SDS011;34999;50.940;3.998;2023-02-28T02:19:14;12.23;;;8.97;;
48945;SDS011;34999;50.940;3.998;2023-02-28T02:22:01;15.93;;;9.40;;
48945;SDS011;34999;50.940;3.998;2023-02-28T02:24:52;13.40;;;8.50;;
48945;SDS011;34999;50.940;3.998;2023-02-28T02:27:46;13.33;;;8.37;;
48945;SDS011;34999;50.940;3.998;2023-02-28T02:30:46;13.77;;;8.50;;
48945;SDS011;34999;50.940;3.998;2023-02-28T02:33:36;16.70;;;8.50;;
48945;SDS011;34999;50.940;3.998;2023-02-28T02:36:21;13.60;;;8.87;;
48945;SDS011;34999;50.940;3.998;2023-02-28T02:38:53;15.53;;;9.10;;
48945;SDS011;34999;50.940;3.998;2023-02-28T02:41:31;12.13;;;8.57;;
48945;SDS011;34999;50.940;3.998;2023-02-28T02:44:03;16.53;;;9.30;;
48945;SDS011;34999;50.940;3.998;2023-02-28T02:46:37;13.17;;;9.37;;
48945;SDS011;34999;50.940;3.998;2023-02-28T02:49:10;12.73;;;9.10;;
48945;SDS011;34999;50.940;3.998;2023-02-28T02:51:44;12.70;;;8.87;;
48945;SDS011;34999;50.940;3.998;2023-02-28T02:54:15;15.38;;;11.50;;
48945;SDS011;34999;50.940;3.998;2023-02-28T02:56:48;14.80;;;10.07;;
48945;SDS011;34999;50.940;3.998;2023-02-28T02:59:20;16.83;;;9.30;;
48945;SDS011;34999;50.940;3.998;2023-02-28T03:01:51;13.63;;;9.50;;
48945;SDS011;34999;50.940;3.998;2023-02-28T03:04:23;15.50;;;9.03;;
48945;SDS011;34999;50.940;3.998;2023-02-28T03:06:55;15.27;;;9.83;;
48945;SDS011;34999;50.940;3.998;2023-02-28T03:09:24;12.90;;;9.47;;
48945;SDS011;34999;50.940;3.998;2023-02-28T03:11:54;15.97;;;9.30;;
48945;SDS011;34999;50.940;3.998;2023-02-28T03:14:28;16.33;;;9.40;;
48945;SDS011;34999;50.940;3.998;2023-02-28T03:17:14;14.23;;;9.77;;
48945;SDS011;34999;50.940;3.998;2023-02-28T03:19:55;14.23;;;10.00;;
48945;SDS011;34999;50.940;3.998;2023-02-28T03:22:42;16.77;;;9.90;;
48945;SDS011;34999;50.940;3.998;2023-02-28T03:25:21;19.60;;;9.43;;
48945;SDS011;34999;50.940;3.998;2023-02-28T03:27:58;16.03;;;9.63;;
48945;SDS011;34999;50.940;3.998;2023-02-28T03:30:33;13.77;;;9.53;;
48945;SDS011;34999;50.940;3.998;2023-02-28T03:33:06;14.70;;;10.00;;
48945;SDS011;34999;50.940;3.998;2023-02-28T03:35:39;16.90;;;9.43;;
48945;SDS011;34999;50.940;3.998;2023-02-28T03:38:14;15.20;;;9.80;;
48945;SDS011;34999;50.940;3.998;2023-02-28T03:40:47;15.13;;;9.17;;
48945;SDS011;34999;50.940;3.998;2023-02-28T03:43:20;15.33;;;10.00;;
48945;SDS011;34999;50.940;3.998;2023-02-28T03:45:53;12.80;;;9.70;;
48945;SDS011;34999;50.940;3.998;2023-02-28T03:48:24;16.37;;;9.00;;
48945;SDS011;34999;50.940;3.998;2023-02-28T03:53:52;14.37;;;8.93;;
48945;SDS011;34999;50.940;3.998;2023-02-28T03:56:23;15.60;;;9.07;;
48945;SDS011;34999;50.940;3.998;2023-02-28T03:58:55;15.93;;;9.63;;
48945;SDS011;34999;50.940;3.998;2023-02-28T04:01:30;15.37;;;9.67;;
48945;SDS011;34999;50.940;3.998;2023-02-28T04:04:02;17.90;;;9.73;;
48945;SDS011;34999;50.940;3.998;2023-02-28T04:06:32;19.30;;;9.60;;
48945;SDS011;34999;50.940;3.998;2023-02-28T04:09:03;15.50;;;10.17;;
48945;SDS011;34999;50.940;3.998;2023-02-28T04:11:32;16.57;;;10.37;;
48945;SDS011;34999;50.940;3.998;2023-02-28T04:14:02;15.63;;;10.53;;
48945;SDS011;34999;50.940;3.998;2023-02-28T04:16:31;17.37;;;9.90;;
48945;SDS011;34999;50.940;3.998;2023-02-28T04:19:01;14.77;;;10.17;;
48945;SDS011;34999;50.940;3.998;2023-02-28T04:21:32;15.60;;;10.13;;
48945;SDS011;34999;50.940;3.998;2023-02-28T04:24:03;16.43;;;10.03;;
48945;SDS011;34999;50.940;3.998;2023-02-28T04:26:32;15.57;;;10.77;;
48945;SDS011;34999;50.940;3.998;2023-02-28T04:29:02;16.37;;;9.70;;
48945;SDS011;34999;50.940;3.998;2023-02-28T04:31:31;19.23;;;10.40;;
48945;SDS011;34999;50.940;3.998;2023-02-28T04:34:00;19.77;;;10.47;;
48945;SDS011;34999;50.940;3.998;2023-02-28T04:36:28;20.30;;;10.57;;
48945;SDS011;34999;50.940;3.998;2023-02-28T04:38:57;15.90;;;10.33;;
48945;SDS011;34999;50.940;3.998;2023-02-28T04:41:26;16.83;;;10.57;;
48945;SDS011;34999;50.940;3.998;2023-02-28T04:43:58;18.03;;;10.97;;
48945;SDS011;34999;50.940;3.998;2023-02-28T04:46:26;19.37;;;10.33;;
48945;SDS011;34999;50.940;3.998;2023-02-28T04:48:56;19.97;;;11.20;;
48945;SDS011;34999;50.940;3.998;2023-02-28T04:51:25;15.50;;;10.93;;
48945;SDS011;34999;50.940;3.998;2023-02-28T04:53:54;20.33;;;11.40;;
48945;SDS011;34999;50.940;3.998;2023-02-28T04:56:22;18.60;;;11.03;;
48945;SDS011;34999;50.940;3.998;2023-02-28T04:58:52;21.57;;;11.90;;
48945;SDS011;34999;50.940;3.998;2023-02-28T05:01:22;21.13;;;12.30;;
48945;SDS011;34999;50.940;3.998;2023-02-28T05:03:52;19.20;;;11.43;;
48945;SDS011;34999;50.940;3.998;2023-02-28T05:06:22;17.23;;;10.77;;
48945;SDS011;34999;50.940;3.998;2023-02-28T05:08:51;18.33;;;11.80;;
48945;SDS011;34999;50.940;3.998;2023-02-28T05:11:21;20.70;;;11.87;;
48945;SDS011;34999;50.940;3.998;2023-02-28T05:13:53;17.40;;;11.50;;
48945;SDS011;34999;50.940;3.998;2023-02-28T05:16:21;22.10;;;11.13;;
48945;SDS011;34999;50.940;3.998;2023-02-28T05:18:50;21.73;;;11.40;;
48945;SDS011;34999;50.940;3.998;2023-02-28T05:21:24;23.03;;;12.37;;
48945;SDS011;34999;50.940;3.998;2023-02-28T05:23:56;22.80;;;12.20;;
48945;SDS011;34999;50.940;3.998;2023-02-28T05:26:26;22.03;;;12.13;;
48945;SDS011;34999;50.940;3.998;2023-02-28T05:28:55;21.47;;;12.27;;
48945;SDS011;34999;50.940;3.998;2023-02-28T05:31:24;25.23;;;13.53;;
48945;SDS011;34999;50.940;3.998;2023-02-28T05:33:53;24.77;;;12.47;;
48945;SDS011;34999;50.940;3.998;2023-02-28T05:36:21;36.37;;;14.60;;
48945;SDS011;34999;50.940;3.998;2023-02-28T05:38:50;23.90;;;13.23;;
48945;SDS011;34999;50.940;3.998;2023-02-28T05:41:19;19.77;;;12.27;;
48945;SDS011;34999;50.940;3.998;2023-02-28T05:43:47;19.10;;;12.43;;
48945;SDS011;34999;50.940;3.998;2023-02-28T05:46:17;16.83;;;11.83;;
48945;SDS011;34999;50.940;3.998;2023-02-28T05:48:46;16.77;;;11.10;;
48945;SDS011;34999;50.940;3.998;2023-02-28T05:51:15;17.60;;;10.63;;
48945;SDS011;34999;50.940;3.998;2023-02-28T05:53:44;17.67;;;11.23;;
48945;SDS011;34999;50.940;3.998;2023-02-28T05:56:12;18.77;;;11.30;;
48945;SDS011;34999;50.940;3.998;2023-02-28T05:58:40;13.93;;;10.93;;
48945;SDS011;34999;50.940;3.998;2023-02-28T06:01:23;19.60;;;11.20;;
48945;SDS011;34999;50.940;3.998;2023-02-28T06:04:01;21.80;;;11.73;;
48945;SDS011;34999;50.940;3.998;2023-02-28T06:06:31;22.43;;;11.33;;
48945;SDS011;34999;50.940;3.998;2023-02-28T06:09:02;19.37;;;12.20;;
48945;SDS011;34999;50.940;3.998;2023-02-28T06:11:31;18.47;;;11.13;;
48945;SDS011;34999;50.940;3.998;2023-02-28T06:14:00;20.73;;;11.30;;
48945;SDS011;34999;50.940;3.998;2023-02-28T06:16:31;15.57;;;10.10;;
48945;SDS011;34999;50.940;3.998;2023-02-28T06:19:01;18.60;;;11.40;;
48945;SDS011;34999;50.940;3.998;2023-02-28T06:21:31;15.97;;;10.83;;
48945;SDS011;34999;50.940;3.998;2023-02-28T06:23:59;16.17;;;10.43;;
48945;SDS011;34999;50.940;3.998;2023-02-28T06:26:28;20.87;;;10.80;;
48945;SDS011;34999;50.940;3.998;2023-02-28T06:28:56;15.93;;;10.77;;
48945;SDS011;34999;50.940;3.998;2023-02-28T06:31:25;18.43;;;11.10;;
48945;SDS011;34999;50.940;3.998;2023-02-28T06:33:57;19.77;;;12.03;;
48945;SDS011;34999;50.940;3.998;2023-02-28T06:36:25;19.77;;;11.53;;
48945;SDS011;34999;50.940;3.998;2023-02-28T06:38:54;20.50;;;11.23;;
48945;SDS011;34999;50.940;3.998;2023-02-28T06:41:23;19.43;;;11.30;;
48945;SDS011;34999;50.940;3.998;2023-02-28T06:43:53;23.33;;;10.83;;
48945;SDS011;34999;50.940;3.998;2023-02-28T06:49:10;19.20;;;10.27;;
48945;SDS011;34999;50.940;3.998;2023-02-28T06:51:39;18.80;;;11.27;;
48945;SDS011;34999;50.940;3.998;2023-02-28T06:54:11;15.73;;;9.73;;
48945;SDS011;34999;50.940;3.998;2023-02-28T06:56:40;15.67;;;10.93;;
48945;SDS011;34999;50.940;3.998;2023-02-28T06:59:08;15.07;;;10.47;;
48945;SDS011;34999;50.940;3.998;2023-02-28T07:01:36;23.40;;;10.80;;
48945;SDS011;34999;50.940;3.998;2023-02-28T07:04:05;14.57;;;10.63;;
48945;SDS011;34999;50.940;3.998;2023-02-28T07:06:35;27.33;;;12.17;;
48945;SDS011;34999;50.940;3.998;2023-02-28T07:09:03;19.37;;;11.13;;
48945;SDS011;34999;50.940;3.998;2023-02-28T07:11:32;17.77;;;10.77;;
48945;SDS011;34999;50.940;3.998;2023-02-28T07:14:00;17.47;;;11.03;;
48945;SDS011;34999;50.940;3.998;2023-02-28T07:16:28;18.10;;;10.97;;
48945;SDS011;34999;50.940;3.998;2023-02-28T07:18:57;14.10;;;9.97;;
48945;SDS011;34999;50.940;3.998;2023-02-28T07:21:25;15.53;;;10.50;;
48945;SDS011;34999;50.940;3.998;2023-02-28T07:23:55;16.20;;;11.00;;
48945;SDS011;34999;50.940;3.998;2023-02-28T07:26:24;15.57;;;10.13;;
48945;SDS011;34999;50.940;3.998;2023-02-28T07:28:52;15.23;;;10.13;;
48945;SDS011;34999;50.940;3.998;2023-02-28T07:31:20;18.30;;;9.93;;
48945;SDS011;34999;50.940;3.998;2023-02-28T07:33:49;20.07;;;10.07;;
48945;SDS011;34999;50.940;3.998;2023-02-28T07:36:17;15.50;;;9.90;;
48945;SDS011;34999;50.940;3.998;2023-02-28T07:38:46;14.83;;;10.07;;
48945;SDS011;34999;50.940;3.998;2023-02-28T07:41:18;18.30;;;10.13;;
48945;SDS011;34999;50.940;3.998;2023-02-28T07:43:48;16.77;;;10.57;;
48945;SDS011;34999;50.940;3.998;2023-02-28T07:46:16;15.93;;;9.17;;
48945;SDS011;34999;50.940;3.998;2023-02-28T07:48:47;15.03;;;9.70;;
48945;SDS011;34999;50.940;3.998;2023-02-28T07:51:15;14.60;;;9.27;;
48945;SDS011;34999;50.940;3.998;2023-02-28T07:53:43;13.60;;;9.10;;
48945;SDS011;34999;50.940;3.998;2023-02-28T07:56:12;14.83;;;9.83;;
48945;SDS011;34999;50.940;3.998;2023-02-28T07:58:41;13.97;;;9.43;;
48945;SDS011;34999;50.940;3.998;2023-02-28T08:01:10;14.93;;;9.10;;
48945;SDS011;34999;50.940;3.998;2023-02-28T08:03:39;16.50;;;9.07;;
48945;SDS011;34999;50.940;3.998;2023-02-28T08:06:08;13.23;;;8.93;;
48945;SDS011;34999;50.940;3.998;2023-02-28T08:08:43;15.67;;;9.43;;
48945;SDS011;34999;50.940;3.998;2023-02-28T08:11:11;14.63;;;10.07;;
48945;SDS011;34999;50.940;3.998;2023-02-28T08:13:41;15.87;;;9.77;;
48945;SDS011;34999;50.940;3.998;2023-02-28T08:16:11;15.07;;;9.40;;
48945;SDS011;34999;50.940;3.998;2023-02-28T08:18:43;19.00;;;10.13;;
48945;SDS011;34999;50.940;3.998;2023-02-28T08:21:12;13.37;;;8.57;;
48945;SDS011;34999;50.940;3.998;2023-02-28T08:23:40;13.90;;;9.23;;
48945;SDS011;34999;50.940;3.998;2023-02-28T08:26:08;13.90;;;8.77;;
48945;SDS011;34999;50.940;3.998;2023-02-28T08:28:37;12.53;;;8.13;;
48945;SDS011;34999;50.940;3.998;2023-02-28T08:31:08;14.03;;;8.30;;
48945;SDS011;34999;50.940;3.998;2023-02-28T08:33:38;13.20;;;8.10;;
48945;SDS011;34999;50.940;3.998;2023-02-28T08:36:07;13.10;;;7.83;;
48945;SDS011;34999;50.940;3.998;2023-02-28T08:38:36;10.53;;;7.20;;
48945;SDS011;34999;50.940;3.998;2023-02-28T08:41:06;10.20;;;7.40;;
48945;SDS011;34999;50.940;3.998;2023-02-28T08:43:35;12.70;;;6.60;;
48945;SDS011;34999;50.940;3.998;2023-02-28T08:46:04;10.80;;;7.60;;
48945;SDS011;34999;50.940;3.998;2023-02-28T08:48:34;9.43;;;6.50;;
48945;SDS011;34999;50.940;3.998;2023-02-28T08:51:06;15.57;;;6.63;;
48945;SDS011;34999;50.940;3.998;2023-02-28T08:53:36;7.27;;;6.10;;
48945;SDS011;34999;50.940;3.998;2023-02-28T08:56:06;14.00;;;6.07;;
48945;SDS011;34999;50.940;3.998;2023-02-28T08:58:35;9.37;;;5.93;;
48945;SDS011;34999;50.940;3.998;2023-02-28T09:01:08;19.37;;;6.23;;
48945;SDS011;34999;50.940;3.998;2023-02-28T09:03:40;9.77;;;6.00;;
48945;SDS011;34999;50.940;3.998;2023-02-28T09:06:13;5.93;;;5.43;;
48945;SDS011;34999;50.940;3.998;2023-02-28T09:08:42;6.57;;;5.60;;
48945;SDS011;34999;50.940;3.998;2023-02-28T09:11:10;10.37;;;6.40;;
48945;SDS011;34999;50.940;3.998;2023-02-28T09:13:39;8.30;;;5.47;;
48945;SDS011;34999;50.940;3.998;2023-02-28T09:16:10;5.90;;;5.30;;
48945;SDS011;34999;50.940;3.998;2023-02-28T09:18:40;5.43;;;5.00;;
48945;SDS011;34999;50.940;3.998;2023-02-28T09:21:10;8.80;;;4.83;;
48945;SDS011;34999;50.940;3.998;2023-02-28T09:23:41;6.77;;;4.83;;
48945;SDS011;34999;50.940;3.998;2023-02-28T09:26:13;9.60;;;4.50;;
48945;SDS011;34999;50.940;3.998;2023-02-28T09:28:42;4.50;;;4.10;;
48945;SDS011;34999;50.940;3.998;2023-02-28T09:31:11;5.90;;;4.57;;
48945;SDS011;34999;50.940;3.998;2023-02-28T09:33:42;4.37;;;3.90;;
48945;SDS011;34999;50.940;3.998;2023-02-28T09:36:10;4.27;;;4.00;;
48945;SDS011;34999;50.940;3.998;2023-02-28T09:38:38;4.23;;;3.93;;
48945;SDS011;34999;50.940;3.998;2023-02-28T09:41:10;4.10;;;3.70;;
48945;SDS011;34999;50.940;3.998;2023-02-28T09:43:44;4.27;;;3.70;;
48945;SDS011;34999;50.940;3.998;2023-02-28T09:46:17;3.83;;;3.53;;
48945;SDS011;34999;50.940;3.998;2023-02-28T09:48:56;5.13;;;3.67;;
48945;SDS011;34999;50.940;3.998;2023-02-28T09:51:30;4.03;;;3.70;;
48945;SDS011;34999;50.940;3.998;2023-02-28T09:54:09;3.70;;;3.40;;
48945;SDS011;34999;50.940;3.998;2023-02-28T09:56:45;4.37;;;3.10;;
48945;SDS011;34999;50.940;3.998;2023-02-28T10:02:12;5.70;;;3.47;;
48945;SDS011;34999;50.940;3.998;2023-02-28T10:04:51;5.00;;;3.63;;
48945;SDS011;34999;50.940;3.998;2023-02-28T10:07:30;4.03;;;3.53;;
48945;SDS011;34999;50.940;3.998;2023-02-28T10:12:47;5.87;;;3.80;;
48945;SDS011;34999;50.940;3.998;2023-02-28T10:15:19;3.63;;;3.40;;
48945;SDS011;34999;50.940;3.998;2023-02-28T10:17:53;4.00;;;3.60;;
48945;SDS011;34999;50.940;3.998;2023-02-28T10:20:37;3.50;;;3.20;;
48945;SDS011;34999;50.940;3.998;2023-02-28T10:23:09;3.50;;;3.20;;
48945;SDS011;34999;50.940;3.998;2023-02-28T10:25:43;3.50;;;2.97;;
48945;SDS011;34999;50.940;3.998;2023-02-28T10:28:15;6.67;;;2.80;;
48945;SDS011;34999;50.940;3.998;2023-02-28T10:30:46;2.90;;;2.70;;
48945;SDS011;34999;50.940;3.998;2023-02-28T10:33:21;2.70;;;2.60;;
48945;SDS011;34999;50.940;3.998;2023-02-28T10:35:53;3.43;;;2.50;;
48945;SDS011;34999;50.940;3.998;2023-02-28T10:38:22;3.37;;;2.80;;
48945;SDS011;34999;50.940;3.998;2023-02-28T10:40:51;2.93;;;2.83;;
48945;SDS011;34999;50.940;3.998;2023-02-28T10:43:31;5.63;;;2.80;;
48945;SDS011;34999;50.940;3.998;2023-02-28T10:46:01;2.57;;;2.47;;
48945;SDS011;34999;50.940;3.998;2023-02-28T10:48:32;3.10;;;2.93;;
48945;SDS011;34999;50.940;3.998;2023-02-28T10:51:05;3.10;;;2.90;;
48945;SDS011;34999;50.940;3.998;2023-02-28T10:53:36;2.73;;;2.63;;
48945;SDS011;34999;50.940;3.998;2023-02-28T10:56:26;3.17;;;2.97;;
48945;SDS011;34999;50.940;3.998;2023-02-28T10:58:57;3.10;;;2.90;;
48945;SDS011;34999;50.940;3.998;2023-02-28T11:01:34;2.90;;;2.70;;
48945;SDS011;34999;50.940;3.998;2023-02-28T11:04:16;3.27;;;2.67;;
48945;SDS011;34999;50.940;3.998;2023-02-28T11:06:47;2.50;;;2.40;;
48945;SDS011;34999;50.940;3.998;2023-02-28T11:09:25;2.90;;;2.80;;
48945;SDS011;34999;50.940;3.998;2023-02-28T11:11:56;2.70;;;2.60;;
48945;SDS011;34999;50.940;3.998;2023-02-28T11:14:25;3.03;;;2.83;;
48945;SDS011;34999;50.940;3.998;2023-02-28T11:16:56;3.10;;;2.90;;
48945;SDS011;34999;50.940;3.998;2023-02-28T11:19:39;2.90;;;2.70;;
48945;SDS011;34999;50.940;3.998;2023-02-28T11:22:17;3.17;;;2.90;;
48945;SDS011;34999;50.940;3.998;2023-02-28T11:24:48;4.17;;;2.60;;
48945;SDS011;34999;50.940;3.998;2023-02-28T11:27:25;2.70;;;2.60;;
48945;SDS011;34999;50.940;3.998;2023-02-28T11:30:22;2.80;;;2.70;;
48945;SDS011;34999;50.940;3.998;2023-02-28T11:32:56;2.83;;;2.43;;
48945;SDS011;34999;50.940;3.998;2023-02-28T11:35:26;2.70;;;2.60;;
48945;SDS011;34999;50.940;3.998;2023-02-28T11:37:59;2.60;;;2.50;;
48945;SDS011;34999;50.940;3.998;2023-02-28T11:40:30;2.80;;;2.70;;
48945;SDS011;34999;50.940;3.998;2023-02-28T11:43:09;2.50;;;2.30;;
48945;SDS011;34999;50.940;3.998;2023-02-28T11:45:54;3.53;;;2.70;;
48945;SDS011;34999;50.940;3.998;2023-02-28T11:48:32;2.93;;;2.73;;
48945;SDS011;34999;50.940;3.998;2023-02-28T11:51:13;2.80;;;2.60;;
48945;SDS011;34999;50.940;3.998;2023-02-28T11:54:03;2.87;;;2.70;;
48945;SDS011;34999;50.940;3.998;2023-02-28T11:57:02;2.77;;;2.67;;
48945;SDS011;34999;50.940;3.998;2023-02-28T11:59:42;2.70;;;2.60;;
48945;SDS011;34999;50.940;3.998;2023-02-28T12:02:24;2.33;;;2.20;;
48945;SDS011;34999;50.940;3.998;2023-02-28T12:05:02;2.40;;;2.30;;
48945;SDS011;34999;50.940;3.998;2023-02-28T12:07:44;2.67;;;2.53;;
48945;SDS011;34999;50.940;3.998;2023-02-28T12:12:59;2.43;;;2.33;;
48945;SDS011;34999;50.940;3.998;2023-02-28T12:15:42;2.70;;;2.60;;
48945;SDS011;34999;50.940;3.998;2023-02-28T12:18:24;3.67;;;2.87;;
48945;SDS011;34999;50.940;3.998;2023-02-28T12:20:59;3.00;;;2.90;;
48945;SDS011;34999;50.940;3.998;2023-02-28T12:23:38;5.57;;;2.63;;
48945;SDS011;34999;50.940;3.998;2023-02-28T12:26:18;3.40;;;2.70;;
48945;SDS011;34999;50.940;3.998;2023-02-28T12:28:53;3.40;;;2.60;;
48945;SDS011;34999;50.940;3.998;2023-02-28T12:31:29;3.53;;;3.23;;
48945;SDS011;34999;50.940;3.998;2023-02-28T12:34:03;3.07;;;2.97;;
48945;SDS011;34999;50.940;3.998;2023-02-28T12:36:35;3.50;;;2.77;;
48945;SDS011;34999;50.940;3.998;2023-02-28T12:39:07;3.73;;;3.43;;
48945;SDS011;34999;50.940;3.998;2023-02-28T12:41:42;3.40;;;3.10;;
48945;SDS011;34999;50.940;3.998;2023-02-28T12:44:15;3.80;;;3.50;;
48945;SDS011;34999;50.940;3.998;2023-02-28T12:46:48;3.57;;;3.27;;
48945;SDS011;34999;50.940;3.998;2023-02-28T12:49:22;2.80;;;2.70;;
48945;SDS011;34999;50.940;3.998;2023-02-28T12:51:56;3.13;;;2.80;;
48945;SDS011;34999;50.940;3.998;2023-02-28T12:54:28;3.33;;;3.10;;
48945;SDS011;34999;50.940;3.998;2023-02-28T12:57:07;3.20;;;3.10;;
48945;SDS011;34999;50.940;3.998;2023-02-28T12:59:43;3.10;;;2.80;;
48945;SDS011;34999;50.940;3.998;2023-02-28T13:02:28;2.90;;;2.80;;
48945;SDS011;34999;50.940;3.998;2023-02-28T13:11:29;3.43;;;3.07;;
48945;SDS011;34999;50.940;3.998;2023-02-28T13:14:02;3.57;;;3.27;;
48945;SDS011;34999;50.940;3.998;2023-02-28T13:16:47;3.43;;;3.23;;
48945;SDS011;34999;50.940;3.998;2023-02-28T13:19:20;3.30;;;3.10;;
48945;SDS011;34999;50.940;3.998;2023-02-28T13:21:51;3.20;;;3.00;;
48945;SDS011;34999;50.940;3.998;2023-02-28T13:24:41;4.03;;;2.90;;
48945;SDS011;34999;50.940;3.998;2023-02-28T13:27:19;3.37;;;3.17;;
48945;SDS011;34999;50.940;3.998;2023-02-28T13:33:22;3.20;;;2.90;;
48945;SDS011;34999;50.940;3.998;2023-02-28T13:36:22;5.77;;;3.20;;
48945;SDS011;34999;50.940;3.998;2023-02-28T13:38:53;3.43;;;3.20;;
48945;SDS011;34999;50.940;3.998;2023-02-28T13:41:45;3.30;;;3.10;;
48945;SDS011;34999;50.940;3.998;2023-02-28T13:44:16;3.17;;;3.00;;
48945;SDS011;34999;50.940;3.998;2023-02-28T13:49:52;3.30;;;3.20;;
48945;SDS011;34999;50.940;3.998;2023-02-28T13:52:22;3.23;;;3.07;;
48945;SDS011;34999;50.940;3.998;2023-02-28T13:55:00;3.20;;;3.00;;
48945;SDS011;34999;50.940;3.998;2023-02-28T13:57:50;3.10;;;3.00;;
48945;SDS011;34999;50.940;3.998;2023-02-28T14:00:35;10.97;;;3.60;;
48945;SDS011;34999;50.940;3.998;2023-02-28T14:06:14;6.27;;;3.63;;
48945;SDS011;34999;50.940;3.998;2023-02-28T14:08:52;3.30;;;3.10;;
48945;SDS011;34999;50.940;3.998;2023-02-28T14:11:24;4.23;;;3.60;;
48945;SDS011;34999;50.940;3.998;2023-02-28T14:13:55;3.70;;;3.40;;
48945;SDS011;34999;50.940;3.998;2023-02-28T14:16:24;3.73;;;3.43;;
48945;SDS011;34999;50.940;3.998;2023-02-28T14:18:58;3.97;;;3.67;;
48945;SDS011;34999;50.940;3.998;2023-02-28T14:21:31;3.23;;;3.13;;
48945;SDS011;34999;50.940;3.998;2023-02-28T14:24:09;3.70;;;3.50;;
48945;SDS011;34999;50.940;3.998;2023-02-28T14:26:59;3.70;;;3.40;;
48945;SDS011;34999;50.940;3.998;2023-02-28T14:33:01;3.70;;;3.50;;
48945;SDS011;34999;50.940;3.998;2023-02-28T14:35:46;3.90;;;3.67;;
48945;SDS011;34999;50.940;3.998;2023-02-28T14:38:37;4.00;;;3.70;;
48945;SDS011;34999;50.940;3.998;2023-02-28T14:41:18;3.70;;;3.50;;
48945;SDS011;34999;50.940;3.998;2023-02-28T14:43:54;3.60;;;3.30;;
48945;SDS011;34999;50.940;3.998;2023-02-28T14:46:25;3.90;;;3.60;;
48945;SDS011;34999;50.940;3.998;2023-02-28T14:48:56;3.60;;;3.50;;
48945;SDS011;34999;50.940;3.998;2023-02-28T14:51:26;3.67;;;3.47;;
48945;SDS011;34999;50.940;3.998;2023-02-28T14:53:57;6.20;;;3.40;;
48945;SDS011;34999;50.940;3.998;2023-02-28T14:56:30;4.43;;;3.40;;
48945;SDS011;34999;50.940;3.998;2023-02-28T14:59:02;3.63;;;3.43;;
48945;SDS011;34999;50.940;3.998;2023-02-28T15:01:31;6.17;;;3.70;;
48945;SDS011;34999;50.940;3.998;2023-02-28T15:04:02;3.37;;;3.27;;
48945;SDS011;34999;50.940;3.998;2023-02-28T15:06:32;3.33;;;3.10;;
48945;SDS011;34999;50.940;3.998;2023-02-28T15:09:14;4.83;;;3.77;;
48945;SDS011;34999;50.940;3.998;2023-02-28T15:11:45;3.67;;;3.43;;
48945;SDS011;34999;50.940;3.998;2023-02-28T15:14:17;3.40;;;3.20;;
48945;SDS011;34999;50.940;3.998;2023-02-28T15:16:48;3.80;;;3.47;;
48945;SDS011;34999;50.940;3.998;2023-02-28T15:19:21;3.80;;;3.50;;
48945;SDS011;34999;50.940;3.998;2023-02-28T15:21:54;3.83;;;3.53;;
48945;SDS011;34999;50.940;3.998;2023-02-28T15:24:32;3.73;;;3.53;;
48945;SDS011;34999;50.940;3.998;2023-02-28T15:27:05;3.73;;;3.53;;
48945;SDS011;34999;50.940;3.998;2023-02-28T15:29:42;3.80;;;3.60;;
48945;SDS011;34999;50.940;3.998;2023-02-28T15:32:21;4.00;;;3.67;;
48945;SDS011;34999;50.940;3.998;2023-02-28T15:34:53;3.83;;;3.60;;
48945;SDS011;34999;50.940;3.998;2023-02-28T15:37:30;4.30;;;3.70;;
48945;SDS011;34999;50.940;3.998;2023-02-28T15:40:11;4.00;;;3.70;;
48945;SDS011;34999;50.940;3.998;2023-02-28T15:42:42;4.10;;;3.80;;